createdAt,value
2019-02-17T00:01:22.147Z,101137.52
2019-02-17T00:06:25.786Z,101137.52
2019-02-17T00:11:29.261Z,101139.09
2019-02-17T00:16:32.738Z,101136.92
2019-02-17T00:21:36.214Z,101139.48
2019-02-17T00:26:39.693Z,101145.84
2019-02-17T00:31:43.166Z,101146.23
2019-02-17T00:36:46.645Z,101155.14
2019-02-17T00:41:50.190Z,101158.51
2019-02-17T00:46:53.671Z,101154.94
2019-02-17T00:51:57.147Z,101158.91
2019-02-17T00:57:00.627Z,101167.81
2019-02-17T01:02:04.109Z,101164.45
2019-02-17T01:07:07.592Z,101162.89
2019-02-17T01:12:11.076Z,101161.89
2019-02-17T01:17:14.551Z,101169.63
2019-02-17T01:22:18.027Z,101165.86
2019-02-17T01:27:21.569Z,101174.38
2019-02-17T01:32:24.990Z,101178.55
2019-02-17T01:37:28.471Z,101177.53
2019-02-17T01:42:31.951Z,101168.02
2019-02-17T01:47:35.422Z,101169.80
2019-02-17T01:52:38.898Z,101160.69
2019-02-17T01:57:42.376Z,101157.32
2019-02-17T02:02:45.855Z,101159.89
2019-02-17T02:07:49.336Z,101162.67
2019-02-17T02:12:52.881Z,101150.78
2019-02-17T02:17:56.371Z,101150.78
2019-02-17T02:22:59.850Z,101137.30
2019-02-17T02:28:03.321Z,101138.09
2019-02-17T02:33:06.799Z,101126.03
2019-02-17T02:38:10.274Z,101124.65
2019-02-17T02:43:13.755Z,101123.27
2019-02-17T02:48:17.225Z,101116.13
2019-02-17T02:53:20.707Z,101115.33
2019-02-17T02:58:24.193Z,101125.64
2019-02-17T03:03:27.659Z,101113.75
2019-02-17T03:08:31.141Z,101110.58
2019-02-17T03:13:34.638Z,101106.22
2019-02-17T03:18:38.098Z,101107.61
2019-02-17T03:23:41.574Z,101118.31
2019-02-17T03:28:45.059Z,101113.55
2019-02-17T03:33:48.551Z,101104.81
2019-02-17T03:38:52.012Z,101112.53
2019-02-17T03:43:55.483Z,101111.15
2019-02-17T03:48:58.954Z,101106.39
2019-02-17T03:54:02.431Z,101117.48
2019-02-17T03:59:05.906Z,101110.95
2019-02-17T04:04:09.389Z,101110.36
2019-02-17T04:09:12.865Z,101110.36
2019-02-17T04:14:16.343Z,101113.72
2019-02-17T04:19:19.820Z,101112.77
2019-02-17T04:24:23.307Z,101119.10
2019-02-17T04:29:26.781Z,101120.48
2019-02-17T04:34:30.263Z,101122.05
2019-02-17T04:39:33.734Z,101115.52
2019-02-17T04:44:37.211Z,101112.73
2019-02-17T04:49:40.687Z,101114.33
2019-02-17T04:54:44.173Z,101112.94
2019-02-17T04:59:47.651Z,101104.81
2019-02-17T05:04:51.128Z,101100.45
2019-02-17T05:09:54.594Z,101104.61
2019-02-17T05:14:58.072Z,101109.38
2019-02-17T05:20:01.548Z,101104.22
2019-02-17T05:25:06.912Z,101104.02
2019-02-17T05:30:11.538Z,101103.84
2019-02-17T05:35:15.021Z,101102.26
2019-02-17T05:40:18.488Z,101099.88
2019-02-17T05:45:21.974Z,101106.81
2019-02-17T05:50:25.442Z,101105.23
2019-02-17T05:55:28.918Z,101104.04
2019-02-17T06:00:32.943Z,101104.04
2019-02-17T06:05:36.422Z,101108.00
2019-02-17T06:10:39.900Z,101116.70
2019-02-17T06:15:43.375Z,101119.67
2019-02-17T06:20:46.852Z,101128.59
2019-02-17T06:25:50.328Z,101127.20
2019-02-17T06:30:53.803Z,101130.77
2019-02-17T06:35:57.280Z,101133.74
2019-02-17T06:41:00.756Z,101134.93
2019-02-17T06:46:04.302Z,101141.66
2019-02-17T06:51:07.779Z,101143.05
2019-02-17T06:56:21.717Z,101147.80
2019-02-17T07:01:25.239Z,101140.70
2019-02-17T07:06:39.386Z,101147.63
2019-02-17T07:11:42.835Z,101139.30
2019-02-17T07:16:46.315Z,101139.30
2019-02-17T07:21:49.790Z,101152.58
2019-02-17T07:26:53.266Z,101152.58
2019-02-17T07:31:56.743Z,101151.57
2019-02-17T07:37:00.217Z,101155.16
2019-02-17T07:42:03.699Z,101148.98
2019-02-17T07:47:07.179Z,101148.99
2019-02-17T07:52:10.661Z,101145.00
2019-02-17T07:57:14.184Z,101146.63
2019-02-17T08:02:17.679Z,101140.90
2019-02-17T08:07:21.155Z,101140.68
2019-02-17T08:12:24.656Z,101140.09
2019-02-17T08:17:28.179Z,101140.49
2019-02-17T08:22:31.663Z,101137.13
2019-02-17T08:27:35.131Z,101133.17
2019-02-17T08:32:38.611Z,101133.95
2019-02-17T08:37:42.138Z,101136.33
2019-02-17T08:42:45.641Z,101139.09
2019-02-17T08:47:49.134Z,101135.55
2019-02-17T08:52:52.636Z,101129.58
2019-02-17T08:57:56.207Z,101128.00
2019-02-17T09:02:59.690Z,101123.45
2019-02-17T09:08:04.053Z,101118.93
2019-02-17T09:13:07.556Z,101113.75
2019-02-17T09:18:11.047Z,101110.19
2019-02-17T09:23:14.545Z,101109.01
2019-02-17T09:28:18.036Z,101108.78
2019-02-17T09:33:21.605Z,101108.78
2019-02-17T09:38:25.093Z,101098.89
2019-02-17T09:43:28.590Z,101094.52
2019-02-17T09:48:32.082Z,101089.97
2019-02-17T09:53:35.577Z,101079.08
2019-02-17T09:58:39.067Z,101079.67
2019-02-17T10:03:42.563Z,101082.64
2019-02-17T10:08:46.054Z,101079.47
2019-02-17T10:13:49.543Z,101084.03
2019-02-17T10:18:53.039Z,101082.25
2019-02-17T10:23:56.597Z,101072.91
2019-02-17T10:29:00.111Z,101065.01
2019-02-17T10:34:03.610Z,101073.50
2019-02-17T10:39:07.538Z,101067.95
2019-02-17T10:44:11.032Z,101066.56
2019-02-17T10:49:14.523Z,101063.40
2019-02-17T10:54:18.017Z,101050.52
2019-02-17T10:59:21.509Z,101046.75
2019-02-17T11:04:25.001Z,101037.64
2019-02-17T11:09:28.500Z,101038.44
2019-02-17T11:14:31.989Z,101030.31
2019-02-17T11:19:35.484Z,101019.38
2019-02-17T11:24:38.974Z,101007.52
2019-02-17T11:29:42.474Z,101008.12
2019-02-17T11:34:45.963Z,101000.59
2019-02-17T11:39:49.450Z,100982.98
2019-02-17T11:44:52.943Z,100992.86
2019-02-17T11:49:56.437Z,100994.61
2019-02-17T11:54:59.941Z,100994.81
2019-02-17T12:00:03.867Z,100991.44
2019-02-17T12:05:09.302Z,100978.95
2019-02-17T12:10:12.927Z,100973.02
2019-02-17T12:15:16.430Z,100973.21
2019-02-17T12:20:34.600Z,100963.10
2019-02-17T12:25:42.717Z,100953.39
2019-02-17T12:30:47.992Z,100943.29
2019-02-17T12:35:51.510Z,100942.09
2019-02-17T12:40:54.997Z,100939.52
2019-02-17T12:45:58.489Z,100929.22
2019-02-17T12:51:01.987Z,100930.60
2019-02-17T12:56:05.477Z,100928.03
2019-02-17T13:01:08.966Z,100923.86
2019-02-17T13:06:12.459Z,100918.31
2019-02-17T13:11:16.019Z,100910.19
2019-02-17T13:16:19.514Z,100902.06
2019-02-17T13:21:23.006Z,100897.91
2019-02-17T13:26:26.498Z,100897.91
2019-02-17T13:31:29.976Z,100898.06
2019-02-17T13:36:33.445Z,100894.30
2019-02-17T13:41:37.779Z,100893.70
2019-02-17T13:46:41.254Z,100889.54
2019-02-17T13:51:44.730Z,100891.72
2019-02-17T13:56:48.208Z,100883.59
2019-02-17T14:01:51.677Z,100887.16
2019-02-17T14:06:55.153Z,100876.25
2019-02-17T14:11:58.631Z,100865.16
2019-02-17T14:17:02.110Z,100866.73
2019-02-17T14:22:05.578Z,100858.22
2019-02-17T14:27:09.054Z,100859.17
2019-02-17T14:32:12.534Z,100855.02
2019-02-17T14:37:16.010Z,100855.02
2019-02-17T14:42:19.487Z,100845.30
2019-02-17T14:47:22.964Z,100847.67
2019-02-17T14:52:26.439Z,100843.70
2019-02-17T14:57:29.914Z,100834.00
2019-02-17T15:02:33.389Z,100825.27
2019-02-17T15:07:36.866Z,100820.31
2019-02-17T15:12:40.369Z,100824.48
2019-02-17T15:17:43.845Z,100822.30
2019-02-17T15:22:47.318Z,100818.92
2019-02-17T15:27:50.793Z,100814.57
2019-02-17T15:33:03.274Z,100806.84
2019-02-17T15:37:59.480Z,100806.25
2019-02-17T15:43:02.958Z,100804.86
2019-02-17T15:48:06.440Z,100796.34
2019-02-17T15:53:09.913Z,100792.18
2019-02-17T15:58:13.391Z,100793.56
2019-02-17T16:03:16.865Z,100785.05
2019-02-17T16:08:20.360Z,100771.17
2019-02-17T16:13:23.841Z,100769.79
2019-02-17T16:18:28.077Z,100768.59
2019-02-17T16:23:31.558Z,100767.20
2019-02-17T16:28:35.029Z,100765.82
2019-02-17T16:33:38.507Z,100764.23
2019-02-17T16:38:41.981Z,100764.83
2019-02-17T16:43:45.455Z,100768.41
2019-02-17T16:48:48.936Z,100769.63
2019-02-17T16:53:52.418Z,100767.02
2019-02-17T16:58:55.898Z,100764.23
2019-02-17T17:03:59.443Z,100767.61
2019-02-17T17:09:03.096Z,100775.94
2019-02-17T17:14:08.921Z,100777.33
2019-02-17T17:19:11.782Z,100774.14
2019-02-17T17:24:15.258Z,100775.13
2019-02-17T17:29:18.738Z,100778.89
2019-02-17T17:34:22.277Z,100779.67
2019-02-17T17:39:25.701Z,100781.06
2019-02-17T17:44:29.182Z,100775.11
2019-02-17T17:49:32.668Z,100774.52
2019-02-17T17:54:36.165Z,100768.97
2019-02-17T17:59:39.650Z,100773.30
2019-02-17T18:04:43.163Z,100770.35
2019-02-17T18:09:46.653Z,100776.26
2019-02-17T18:14:50.132Z,100776.26
2019-02-17T18:19:53.617Z,100778.44
2019-02-17T18:24:57.107Z,100773.68
2019-02-17T18:30:00.595Z,100784.97
2019-02-17T18:35:05.227Z,100779.42
2019-02-17T18:40:11.563Z,100783.58
2019-02-17T18:45:16.094Z,100783.58
2019-02-17T18:50:19.856Z,100783.58
2019-02-17T18:55:23.347Z,100785.56
2019-02-17T19:00:27.410Z,100781.60
2019-02-17T19:05:32.207Z,100773.88
2019-02-17T19:10:35.982Z,100773.08
2019-02-17T19:15:39.457Z,100766.34
2019-02-17T19:20:42.951Z,100756.63
2019-02-17T19:25:46.441Z,100759.59
2019-02-17T19:30:49.933Z,100759.95
2019-02-17T19:35:53.421Z,100742.41
2019-02-17T19:40:56.916Z,100755.98
2019-02-17T19:46:00.405Z,100762.91
2019-02-17T19:51:03.904Z,100760.73
2019-02-17T19:56:07.667Z,100757.96
2019-02-17T20:01:11.264Z,100755.98
2019-02-17T20:06:16.398Z,100756.96
2019-02-17T20:11:19.892Z,100761.91
2019-02-17T20:16:23.382Z,100758.34
2019-02-17T20:21:26.874Z,100756.36
2019-02-17T20:26:30.372Z,100759.14
2019-02-17T20:31:33.866Z,100759.92
2019-02-17T20:36:37.447Z,100758.54
2019-02-17T20:41:40.931Z,100766.87
2019-02-17T20:46:44.427Z,100768.85
2019-02-17T20:51:47.918Z,100769.05
2019-02-17T20:56:51.410Z,100768.26
2019-02-17T21:01:54.898Z,100764.69
2019-02-17T21:06:58.396Z,100760.33
2019-02-17T21:12:01.890Z,100769.85
2019-02-17T21:17:05.471Z,100769.85
2019-02-17T21:22:08.947Z,100774.45
2019-02-17T21:27:12.446Z,100777.83
2019-02-17T21:32:15.938Z,100777.05
2019-02-17T21:37:19.441Z,100778.84
2019-02-17T21:42:22.918Z,100787.41
2019-02-17T21:47:26.414Z,100786.02
2019-02-17T21:52:29.903Z,100781.47
2019-02-17T21:57:33.394Z,100781.08
2019-02-17T22:02:36.895Z,100786.44
2019-02-17T22:07:40.407Z,100781.91
2019-02-17T22:12:43.872Z,100783.30
2019-02-17T22:17:47.367Z,100782.13
2019-02-17T22:22:50.860Z,100775.78
2019-02-17T22:27:54.350Z,100774.20
2019-02-17T22:32:57.845Z,100767.08
2019-02-17T22:38:01.338Z,100769.84
2019-02-17T22:43:04.813Z,100764.73
2019-02-17T22:48:08.289Z,100768.89
2019-02-17T22:53:12.037Z,100775.23
2019-02-17T22:58:15.510Z,100775.63
2019-02-17T23:03:18.997Z,100772.07
2019-02-17T23:08:22.459Z,100776.03
2019-02-17T23:13:25.940Z,100781.78
2019-02-17T23:18:29.419Z,100782.18
2019-02-17T23:23:32.904Z,100784.36
2019-02-17T23:28:36.386Z,100785.55
2019-02-17T23:33:39.864Z,100778.42
2019-02-17T23:38:43.345Z,100786.55
2019-02-17T23:43:46.827Z,100785.16
2019-02-17T23:48:50.306Z,100790.71
2019-02-17T23:53:53.789Z,100787.15
2019-02-17T23:58:57.261Z,100784.80
